createdAt,value
2023-04-14T00:01:59.661Z,96.50
2023-04-14T00:04:26.744Z,96.60
2023-04-14T00:06:53.637Z,96.50
2023-04-14T00:09:20.353Z,96.70
2023-04-14T00:11:47.067Z,96.80
2023-04-14T00:14:13.774Z,97.10
2023-04-14T00:16:41.916Z,96.70
2023-04-14T00:19:08.703Z,96.70
2023-04-14T00:21:35.493Z,96.50
2023-04-14T00:24:02.261Z,97.10
2023-04-14T00:26:31.138Z,97.10
2023-04-14T00:28:57.861Z,97.50
2023-04-14T00:31:24.711Z,97.40
2023-04-14T00:33:52.840Z,96.90
2023-04-14T00:36:19.597Z,97.40
2023-04-14T00:38:46.307Z,97.50
2023-04-14T00:41:13.032Z,97.70
2023-04-14T00:43:39.778Z,97.60
2023-04-14T00:46:06.556Z,97.80
2023-04-14T00:48:33.335Z,97.40
2023-04-14T00:51:02.366Z,98.00
2023-04-14T00:53:29.131Z,97.60
2023-04-14T00:55:56.120Z,98.10
2023-04-14T00:58:22.865Z,97.80
2023-04-14T01:00:49.705Z,98.40
2023-04-14T01:03:16.532Z,97.70
2023-04-14T01:05:43.310Z,98.10
2023-04-14T01:08:11.533Z,96.30
2023-04-14T01:10:41.963Z,97.50
2023-04-14T01:13:22.133Z,97.50
2023-04-14T01:15:55.795Z,97.10
2023-04-14T01:18:29.951Z,97.90
2023-04-14T01:20:58.680Z,97.80
2023-04-14T01:23:31.571Z,96.30
2023-04-14T01:26:17.718Z,95.60
2023-04-14T01:29:24.613Z,96.80
2023-04-14T01:31:56.797Z,97.10
2023-04-14T01:34:29.610Z,97.20
2023-04-14T01:37:04.802Z,96.90
2023-04-14T01:39:36.374Z,97.20
2023-04-14T01:42:06.403Z,97.60
2023-04-14T01:44:34.207Z,97.20
2023-04-14T01:47:04.689Z,97.10
2023-04-14T01:49:34.034Z,97.30
2023-04-14T01:52:02.116Z,97.90
2023-04-14T01:54:31.812Z,97.90
2023-04-14T01:57:01.271Z,97.80
2023-04-14T01:59:29.593Z,97.70
2023-04-14T02:01:57.800Z,97.60
2023-04-14T02:04:28.738Z,97.40
2023-04-14T02:06:58.573Z,97.70
2023-04-14T02:09:26.227Z,98.00
2023-04-14T02:11:54.071Z,97.80
2023-04-14T02:14:22.379Z,98.30
2023-04-14T02:16:51.928Z,98.60
2023-04-14T02:19:20.016Z,98.70
2023-04-14T02:21:50.434Z,98.60
2023-04-14T02:24:17.728Z,98.60
2023-04-14T02:26:53.189Z,98.80
2023-04-14T02:29:23.404Z,98.80
2023-04-14T02:32:02.612Z,98.90
2023-04-14T02:34:33.069Z,98.70
2023-04-14T02:37:07.281Z,98.40
2023-04-14T02:39:40.200Z,99.10
2023-04-14T02:42:12.614Z,99.00
2023-04-14T02:44:45.559Z,98.60
2023-04-14T02:47:15.769Z,98.80
2023-04-14T02:49:45.540Z,98.50
2023-04-14T02:52:16.224Z,99.10
2023-04-14T02:54:44.533Z,98.80
2023-04-14T02:57:12.337Z,98.50
2023-04-14T02:59:41.474Z,98.50
2023-04-14T03:02:09.966Z,97.90
2023-04-14T03:04:38.902Z,97.50
2023-04-14T03:07:07.597Z,98.30
2023-04-14T03:09:37.153Z,98.00
2023-04-14T03:12:05.893Z,97.80
2023-04-14T03:14:33.896Z,96.90
2023-04-14T03:17:01.657Z,97.30
2023-04-14T03:19:29.547Z,97.70
2023-04-14T03:21:57.651Z,97.00
2023-04-14T03:24:26.091Z,97.40
2023-04-14T03:26:59.170Z,96.00
2023-04-14T03:29:29.078Z,96.50
2023-04-14T03:31:57.817Z,96.90
2023-04-14T03:34:29.283Z,96.60
2023-04-14T03:36:57.288Z,96.80
2023-04-14T03:39:25.198Z,96.20
2023-04-14T03:41:54.989Z,96.30
2023-04-14T03:44:23.618Z,95.90
2023-04-14T03:46:50.406Z,96.30
2023-04-14T03:49:18.490Z,96.50
2023-04-14T03:51:46.966Z,97.00
2023-04-14T03:54:16.180Z,97.20
2023-04-14T03:56:44.382Z,97.30
2023-04-14T03:59:14.805Z,97.40
2023-04-14T04:01:42.475Z,97.50
2023-04-14T04:04:09.633Z,97.60
2023-04-14T04:06:36.769Z,96.50
2023-04-14T04:09:05.941Z,96.60
2023-04-14T04:11:34.780Z,96.10
2023-04-14T04:14:04.094Z,96.90
2023-04-14T04:16:34.492Z,96.30
2023-04-14T04:19:05.674Z,96.90
2023-04-14T04:21:35.180Z,96.50
2023-04-14T04:24:04.622Z,96.60
2023-04-14T04:26:31.341Z,97.20
2023-04-14T04:28:58.851Z,97.20
2023-04-14T04:31:28.006Z,97.00
2023-04-14T04:33:57.199Z,97.30
2023-04-14T04:36:25.730Z,97.20
2023-04-14T04:38:52.481Z,97.30
2023-04-14T04:41:22.932Z,97.40
2023-04-14T04:43:49.832Z,96.40
2023-04-14T04:46:37.872Z,96.90
2023-04-14T04:49:05.980Z,96.80
2023-04-14T04:51:32.763Z,96.90
2023-04-14T04:53:59.507Z,96.90
2023-04-14T04:56:26.248Z,97.10
2023-04-14T04:58:52.979Z,97.00
2023-04-14T05:01:19.751Z,97.30
2023-04-14T05:03:46.552Z,97.60
2023-04-14T05:06:14.604Z,97.80
2023-04-14T05:08:41.322Z,98.10
2023-04-14T05:11:08.168Z,97.30
2023-04-14T05:13:34.899Z,97.50
2023-04-14T05:16:04.968Z,98.00
2023-04-14T05:18:31.982Z,97.90
2023-04-14T05:21:01.906Z,98.00
2023-04-14T05:23:30.113Z,97.60
2023-04-14T05:26:01.286Z,97.60
2023-04-14T05:28:34.300Z,97.80
2023-04-14T05:31:01.478Z,98.20
2023-04-14T05:33:28.405Z,98.10
2023-04-14T05:35:55.389Z,98.90
2023-04-14T05:38:22.288Z,98.50
2023-04-14T05:40:50.320Z,98.90
2023-04-14T05:43:17.292Z,98.60
2023-04-14T05:45:44.024Z,99.00
2023-04-14T05:48:10.814Z,98.50
2023-04-14T05:50:37.531Z,98.80
2023-04-14T05:53:04.222Z,99.00
2023-04-14T05:55:31.086Z,98.70
2023-04-14T05:57:59.335Z,98.70
2023-04-14T06:00:26.228Z,98.40
2023-04-14T06:02:53.069Z,98.30
2023-04-14T06:05:20.046Z,98.30
2023-04-14T06:07:46.785Z,97.70
2023-04-14T06:10:13.660Z,97.90
2023-04-14T06:12:40.426Z,98.40
2023-04-14T06:15:09.169Z,99.00
2023-04-14T06:17:35.875Z,98.40
2023-04-14T06:20:02.663Z,97.50
2023-04-14T06:22:29.355Z,97.90
2023-04-14T06:24:56.354Z,97.50
2023-04-14T06:27:23.277Z,98.30
2023-04-14T06:29:50.066Z,98.50
2023-04-14T06:32:18.213Z,96.70
2023-04-14T06:34:46.328Z,96.80
2023-04-14T06:37:13.004Z,97.20
2023-04-14T06:39:39.706Z,97.00
2023-04-14T06:42:06.431Z,97.10
2023-04-14T06:44:33.147Z,96.60
2023-04-14T06:46:59.862Z,97.40
2023-04-14T06:49:27.880Z,97.50
2023-04-14T06:51:54.604Z,96.80
2023-04-14T06:54:21.336Z,97.40
2023-04-14T06:56:48.024Z,98.00
2023-04-14T06:59:14.734Z,97.10
2023-04-14T07:01:41.469Z,97.40
2023-04-14T07:04:08.650Z,96.30
2023-04-14T07:06:36.875Z,96.80
2023-04-14T07:09:03.703Z,97.90
2023-04-14T07:11:30.461Z,98.10
2023-04-14T07:13:57.163Z,98.50
2023-04-14T07:16:23.931Z,98.30
2023-04-14T07:18:50.744Z,98.50
2023-04-14T07:21:17.433Z,98.60
2023-04-14T07:23:45.482Z,99.00
2023-04-14T07:26:12.229Z,98.80
2023-04-14T07:28:38.968Z,98.10
2023-04-14T07:31:09.124Z,98.80
2023-04-14T07:33:36.035Z,99.00
2023-04-14T07:36:04.254Z,99.30
2023-04-14T07:38:31.454Z,98.80
2023-04-14T07:40:59.974Z,99.50
2023-04-14T07:43:26.677Z,99.60
2023-04-14T07:45:53.436Z,98.80
2023-04-14T07:48:20.286Z,99.30
2023-04-14T07:50:48.095Z,97.90
2023-04-14T07:53:14.830Z,98.40
2023-04-14T07:55:41.888Z,98.30
2023-04-14T07:58:15.184Z,98.60
2023-04-14T08:00:42.596Z,99.20
2023-04-14T08:03:09.459Z,99.40
2023-04-14T08:05:36.251Z,98.80
2023-04-14T08:08:03.081Z,99.40
2023-04-14T08:10:29.874Z,99.60
2023-04-14T08:12:56.591Z,99.00
2023-04-14T08:15:24.642Z,98.50
2023-04-14T08:17:51.468Z,98.50
2023-04-14T08:20:18.233Z,98.70
2023-04-14T08:22:45.328Z,98.80
2023-04-14T08:25:12.119Z,99.20
2023-04-14T08:27:38.892Z,99.20
2023-04-14T08:30:08.395Z,98.90
2023-04-14T08:32:37.666Z,98.40
2023-04-14T08:35:39.931Z,98.10
2023-04-14T08:37:51.606Z,98.00
2023-04-14T08:40:21.588Z,98.10
2023-04-14T08:42:48.473Z,98.70
2023-04-14T08:45:15.247Z,98.80
2023-04-14T08:47:45.789Z,98.40
2023-04-14T08:50:18.421Z,98.70
2023-04-14T08:52:46.947Z,98.50
2023-04-14T08:55:14.925Z,97.80
2023-04-14T08:57:44.124Z,97.90
2023-04-14T09:00:11.794Z,98.30
2023-04-14T09:02:39.470Z,98.90
2023-04-14T09:05:08.694Z,98.40
2023-04-14T09:07:36.390Z,99.20
2023-04-14T09:10:03.506Z,99.30
2023-04-14T09:12:30.724Z,99.90
2023-04-14T09:14:59.048Z,99.50
2023-04-14T09:17:26.844Z,99.00
2023-04-14T09:20:37.536Z,99.90
2023-04-14T09:22:41.892Z,99.90
2023-04-14T09:25:10.325Z,99.30
2023-04-14T09:27:37.719Z,98.90
2023-04-14T09:30:05.531Z,99.10
2023-04-14T09:32:32.797Z,98.80
2023-04-14T09:34:59.524Z,98.80
2023-04-14T09:37:26.298Z,98.60
2023-04-14T09:39:54.343Z,98.80
2023-04-14T09:42:37.398Z,98.50
2023-04-14T09:45:04.917Z,99.90
2023-04-14T09:47:32.400Z,98.60
2023-04-14T09:50:00.879Z,98.60
2023-04-14T09:52:37.816Z,98.10
2023-04-14T09:55:07.421Z,97.90
2023-04-14T09:57:34.893Z,97.60
2023-04-14T10:00:01.618Z,97.40
2023-04-14T10:02:28.589Z,97.20
2023-04-14T10:05:03.939Z,97.10
2023-04-14T10:07:31.057Z,97.10
2023-04-14T10:09:57.792Z,97.00
2023-04-14T10:12:25.855Z,97.00
2023-04-14T10:14:52.616Z,97.00
2023-04-14T10:17:19.550Z,97.00
2023-04-14T10:19:46.754Z,97.10
2023-04-14T10:22:13.754Z,97.10
2023-04-14T10:24:40.747Z,97.20
2023-04-14T10:27:07.546Z,97.20
2023-04-14T10:29:35.774Z,97.20
2023-04-14T10:32:05.834Z,97.30
2023-04-14T10:34:33.422Z,97.30
2023-04-14T10:37:12.319Z,97.30
2023-04-14T10:39:39.567Z,97.30
2023-04-14T10:42:06.327Z,97.30
2023-04-14T10:44:35.280Z,97.40
2023-04-14T10:47:03.827Z,97.40
2023-04-14T10:49:31.830Z,97.40
2023-04-14T10:51:59.877Z,97.50
2023-04-14T10:54:26.581Z,97.50
2023-04-14T10:57:09.773Z,97.60
2023-04-14T10:59:40.491Z,97.70
2023-04-14T11:02:22.537Z,97.80
2023-04-14T11:05:04.001Z,97.90
2023-04-14T11:07:32.025Z,98.00
2023-04-14T11:09:59.864Z,98.30
2023-04-14T11:12:27.239Z,98.40
2023-04-14T11:15:01.807Z,98.50
2023-04-14T11:17:28.894Z,98.50
2023-04-14T11:19:57.356Z,98.60
2023-04-14T11:22:37.419Z,98.70
2023-04-14T11:25:04.908Z,99.00
2023-04-14T11:27:32.778Z,99.00
2023-04-14T11:30:01.470Z,99.10
2023-04-14T11:32:28.285Z,99.20
2023-04-14T11:34:55.131Z,99.30
2023-04-14T11:37:22.847Z,99.30
2023-04-14T11:39:50.215Z,99.40
2023-04-14T11:42:17.025Z,99.40
2023-04-14T11:44:43.775Z,99.50
2023-04-14T11:47:11.807Z,99.50
2023-04-14T11:49:38.556Z,99.60
2023-04-14T11:52:06.967Z,99.70
2023-04-14T11:54:37.414Z,99.90
2023-04-14T11:57:09.447Z,99.90
2023-04-14T11:59:41.788Z,99.90
2023-04-14T12:02:16.598Z,99.90
2023-04-14T12:04:44.121Z,99.90
2023-04-14T12:07:12.286Z,99.90
2023-04-14T12:09:41.925Z,99.90
2023-04-14T12:12:10.713Z,99.90
2023-04-14T12:14:38.415Z,99.90
2023-04-14T12:17:05.931Z,99.90
2023-04-14T12:19:34.897Z,99.90
2023-04-14T12:22:01.769Z,99.90
2023-04-14T12:24:34.003Z,99.90
2023-04-14T12:27:00.742Z,99.90
2023-04-14T12:29:27.482Z,99.60
2023-04-14T12:31:54.234Z,99.40
2023-04-14T12:34:25.340Z,99.60
2023-04-14T12:36:53.478Z,99.70
2023-04-14T12:39:20.777Z,99.90
2023-04-14T12:41:47.518Z,99.90
2023-04-14T12:44:17.958Z,99.90
2023-04-14T12:46:48.463Z,99.90
2023-04-14T12:49:35.225Z,99.90
2023-04-14T12:52:04.038Z,99.90
2023-04-14T12:54:47.101Z,99.90
2023-04-14T12:57:13.859Z,99.90
2023-04-14T12:59:40.563Z,99.90
2023-04-14T13:02:07.403Z,99.90
2023-04-14T13:04:34.375Z,99.90
2023-04-14T13:07:01.116Z,99.80
2023-04-14T13:09:30.324Z,99.80
2023-04-14T13:11:57.055Z,99.90
2023-04-14T13:14:23.903Z,99.90
2023-04-14T13:16:50.661Z,99.90
2023-04-14T13:19:17.395Z,99.90
2023-04-14T13:21:44.114Z,99.90
2023-04-14T13:24:10.862Z,99.90
2023-04-14T13:26:38.888Z,99.90
2023-04-14T13:29:05.599Z,99.90
2023-04-14T13:31:32.351Z,99.90
2023-04-14T13:33:59.108Z,99.90
2023-04-14T13:36:25.814Z,99.90
2023-04-14T13:38:52.528Z,99.90
2023-04-14T13:41:19.218Z,99.90
2023-04-14T13:43:47.269Z,99.90
2023-04-14T13:46:14.088Z,99.90
2023-04-14T13:48:43.017Z,99.90
2023-04-14T13:51:09.968Z,99.90
2023-04-14T13:53:36.705Z,99.90
2023-04-14T13:56:03.729Z,99.90
2023-04-14T13:58:30.534Z,99.90
2023-04-14T14:00:58.632Z,99.90
2023-04-14T14:03:25.710Z,99.90
2023-04-14T14:05:53.223Z,99.90
2023-04-14T14:08:19.932Z,99.90
2023-04-14T14:10:46.657Z,99.90
2023-04-14T14:13:13.355Z,99.90
2023-04-14T14:15:40.167Z,99.90
2023-04-14T14:18:08.249Z,99.90
2023-04-14T14:20:34.940Z,99.90
2023-04-14T14:23:01.666Z,99.90
2023-04-14T14:25:29.598Z,99.90
2023-04-14T14:27:56.304Z,99.90
2023-04-14T14:30:23.018Z,99.90
2023-04-14T14:32:50.812Z,99.90
2023-04-14T14:35:18.912Z,99.90
2023-04-14T14:37:45.671Z,99.90
2023-04-14T14:40:13.023Z,99.90
2023-04-14T14:42:39.742Z,99.90
2023-04-14T14:45:07.704Z,99.90
2023-04-14T14:47:34.665Z,99.90
2023-04-14T14:50:02.956Z,99.90
2023-04-14T14:52:33.333Z,99.90
2023-04-14T14:55:00.515Z,99.90
2023-04-14T14:57:27.296Z,99.50
2023-04-14T14:59:54.188Z,98.80
2023-04-14T15:02:21.202Z,99.50
2023-04-14T15:04:48.328Z,99.90
2023-04-14T15:07:15.188Z,99.90
2023-04-14T15:09:45.652Z,99.90
2023-04-14T15:12:12.368Z,99.90
2023-04-14T15:14:39.099Z,99.90
2023-04-14T15:17:05.813Z,99.90
2023-04-14T15:19:32.565Z,99.90
2023-04-14T15:21:59.293Z,99.90
2023-04-14T15:24:26.008Z,99.90
2023-04-14T15:26:54.097Z,99.90
2023-04-14T15:29:20.798Z,99.90
2023-04-14T15:31:47.522Z,99.90
2023-04-14T15:34:14.272Z,99.90
2023-04-14T15:36:41.008Z,99.90
2023-04-14T15:39:07.721Z,99.90
2023-04-14T15:41:34.476Z,99.90
2023-04-14T15:44:02.885Z,99.90
2023-04-14T15:46:29.871Z,99.90
2023-04-14T15:48:56.683Z,99.90
2023-04-14T15:51:23.404Z,99.90
2023-04-14T15:53:51.725Z,99.90
2023-04-14T15:56:18.417Z,99.90
2023-04-14T15:58:45.154Z,99.90
2023-04-14T16:01:13.199Z,99.90
2023-04-14T16:03:40.125Z,99.90
2023-04-14T16:06:06.944Z,99.90
2023-04-14T16:08:33.737Z,99.90
2023-04-14T16:11:00.489Z,99.90
2023-04-14T16:13:27.221Z,99.90
2023-04-14T16:15:53.925Z,99.90
2023-04-14T16:18:22.024Z,99.90
2023-04-14T16:20:48.749Z,99.90
2023-04-14T16:23:15.447Z,99.90
2023-04-14T16:25:42.126Z,99.90
2023-04-14T16:28:08.866Z,99.90
2023-04-14T16:30:35.993Z,98.70
2023-04-14T16:33:03.675Z,99.20
2023-04-14T16:35:31.810Z,99.00
2023-04-14T16:37:58.563Z,99.90
2023-04-14T16:40:25.277Z,97.10
2023-04-14T16:42:52.015Z,96.50
2023-04-14T16:45:19.210Z,98.00
2023-04-14T16:47:46.528Z,96.60
2023-04-14T16:50:13.285Z,97.10
2023-04-14T16:52:41.372Z,97.30
2023-04-14T16:55:09.006Z,96.00
2023-04-14T16:57:35.768Z,94.30
2023-04-14T17:00:02.528Z,94.10
2023-04-14T17:02:29.366Z,95.90
2023-04-14T17:04:56.149Z,96.40
2023-04-14T17:07:22.923Z,96.50
2023-04-14T17:09:50.949Z,96.70
2023-04-14T17:12:17.715Z,96.40
2023-04-14T17:14:44.437Z,96.60
2023-04-14T17:17:11.172Z,96.70
2023-04-14T17:19:37.873Z,97.20
2023-04-14T17:22:04.652Z,97.50
2023-04-14T17:24:31.380Z,97.30
2023-04-14T17:26:59.590Z,97.30
2023-04-14T17:29:26.367Z,97.40
2023-04-14T17:31:53.292Z,97.90
2023-04-14T17:34:20.078Z,98.40
2023-04-14T17:36:47.418Z,98.60
2023-04-14T17:39:14.221Z,98.40
2023-04-14T17:41:41.056Z,98.30
2023-04-14T17:44:09.115Z,98.10
2023-04-14T17:46:35.834Z,97.60
2023-04-14T17:49:02.560Z,99.30
2023-04-14T17:51:30.943Z,99.30
2023-04-14T17:53:58.214Z,98.80
2023-04-14T17:56:25.521Z,99.70
2023-04-14T17:58:53.355Z,99.70
2023-04-14T18:01:21.792Z,99.10
2023-04-14T18:03:48.777Z,98.70
2023-04-14T18:06:15.628Z,98.80
2023-04-14T18:08:42.368Z,99.20
2023-04-14T18:11:09.147Z,99.10
2023-04-14T18:13:35.848Z,99.10
2023-04-14T18:16:02.573Z,98.70
2023-04-14T18:18:30.629Z,99.30
2023-04-14T18:20:57.334Z,98.90
2023-04-14T18:23:24.123Z,99.00
2023-04-14T18:28:28.367Z,99.30
2023-04-14T18:30:55.311Z,99.70
2023-04-14T18:33:22.101Z,98.80
2023-04-14T18:35:54.593Z,98.70
2023-04-14T18:38:21.675Z,98.30
2023-04-14T18:40:48.754Z,98.40
2023-04-14T18:43:15.720Z,98.60
2023-04-14T18:45:45.067Z,98.90
2023-04-14T18:48:11.847Z,99.10
2023-04-14T18:50:38.576Z,99.00
2023-04-14T18:53:06.683Z,99.90
2023-04-14T18:55:44.375Z,99.90
2023-04-14T18:58:12.650Z,99.90
2023-04-14T19:00:39.664Z,99.90
2023-04-14T19:03:06.435Z,99.90
2023-04-14T19:05:33.338Z,99.90
2023-04-14T19:08:00.046Z,99.90
2023-04-14T19:10:28.879Z,99.90
2023-04-14T19:12:55.706Z,99.90
2023-04-14T19:15:22.434Z,99.90
2023-04-14T19:17:49.225Z,99.90
2023-04-14T19:20:15.962Z,99.90
2023-04-14T19:22:42.724Z,99.90
2023-04-14T19:25:10.103Z,99.90
2023-04-14T19:27:38.160Z,99.90
2023-04-14T19:30:06.137Z,99.90
2023-04-14T19:32:33.464Z,99.90
2023-04-14T19:35:00.299Z,99.90
2023-04-14T19:37:27.128Z,99.90
2023-04-14T19:39:53.844Z,99.90
2023-04-14T19:42:20.628Z,99.90
2023-04-14T19:44:48.657Z,99.90
2023-04-14T19:47:15.409Z,99.90
2023-04-14T19:49:42.120Z,99.90
2023-04-14T19:52:08.998Z,99.90
2023-04-14T19:54:35.788Z,99.90
2023-04-14T19:57:02.478Z,99.90
2023-04-14T19:59:29.461Z,99.90
2023-04-14T20:01:57.536Z,99.90
2023-04-14T20:04:24.418Z,99.90
2023-04-14T20:06:51.197Z,99.90
2023-04-14T20:09:17.965Z,99.90
2023-04-14T20:11:44.672Z,99.90
2023-04-14T20:14:11.483Z,99.90
2023-04-14T20:16:38.370Z,99.90
2023-04-14T20:19:06.450Z,99.90
2023-04-14T20:21:33.160Z,99.90
2023-04-14T20:24:00.402Z,99.90
2023-04-14T20:26:27.278Z,99.90
2023-04-14T20:28:54.025Z,99.90
2023-04-14T20:31:20.802Z,99.90
2023-04-14T20:33:47.540Z,99.90
2023-04-14T20:36:15.603Z,99.90
2023-04-14T20:38:42.360Z,99.90
2023-04-14T20:41:09.106Z,99.90
2023-04-14T20:43:35.805Z,99.90
2023-04-14T20:46:03.018Z,99.90
2023-04-14T20:48:30.897Z,99.90
2023-04-14T20:50:57.584Z,99.90
2023-04-14T20:53:25.819Z,99.90
2023-04-14T20:55:53.774Z,99.90
2023-04-14T20:58:20.530Z,99.90
2023-04-14T21:00:47.247Z,99.90
2023-04-14T21:03:14.058Z,99.90
2023-04-14T21:05:40.923Z,99.90
2023-04-14T21:08:07.706Z,99.90
2023-04-14T21:10:35.770Z,99.90
2023-04-14T21:15:42.308Z,99.90
2023-04-14T21:16:09.623Z,99.90
2023-04-14T21:18:36.393Z,99.90
2023-04-14T21:21:03.306Z,99.90
2023-04-14T21:23:30.137Z,99.90
2023-04-14T21:25:58.200Z,99.90
2023-04-14T21:28:24.982Z,99.90
2023-04-14T21:30:51.701Z,99.90
2023-04-14T21:33:18.404Z,99.90
2023-04-14T21:35:45.114Z,99.90
2023-04-14T21:38:11.837Z,99.90
2023-04-14T21:40:38.589Z,99.90
2023-04-14T21:43:06.699Z,99.90
2023-04-14T21:45:33.497Z,99.90
2023-04-14T21:48:00.356Z,99.90
2023-04-14T21:50:27.115Z,99.90
2023-04-14T21:52:53.912Z,99.90
2023-04-14T21:55:20.654Z,99.90
2023-04-14T21:57:49.193Z,99.90
2023-04-14T22:00:18.319Z,99.90
2023-04-14T22:02:45.551Z,99.90
2023-04-14T22:05:12.519Z,99.90
2023-04-14T22:07:39.420Z,99.90
2023-04-14T22:10:06.965Z,99.90
2023-04-14T22:12:34.192Z,99.90
2023-04-14T22:15:01.524Z,99.90
2023-04-14T22:17:29.855Z,99.90
2023-04-14T22:19:56.613Z,99.90
2023-04-14T22:22:23.345Z,99.90
2023-04-14T22:24:50.629Z,99.90
2023-04-14T22:27:17.376Z,99.90
2023-04-14T22:29:44.124Z,99.90
2023-04-14T22:32:10.861Z,99.90
2023-04-14T22:34:38.898Z,99.90
2023-04-14T22:37:05.624Z,99.90
2023-04-14T22:39:32.346Z,99.90
2023-04-14T22:41:59.043Z,99.90
2023-04-14T22:44:25.724Z,99.90
2023-04-14T22:46:52.423Z,99.90
2023-04-14T22:49:19.186Z,99.90
2023-04-14T22:51:47.228Z,99.90
2023-04-14T22:54:14.001Z,99.90
2023-04-14T22:56:40.692Z,99.90
2023-04-14T22:59:07.403Z,99.90
2023-04-14T23:01:34.121Z,99.90
2023-04-14T23:04:01.090Z,99.90
2023-04-14T23:06:27.867Z,99.90
2023-04-14T23:08:55.918Z,99.90
2023-04-14T23:11:22.781Z,99.90
2023-04-14T23:13:50.092Z,99.90
2023-04-14T23:16:17.667Z,99.90
2023-04-14T23:18:44.419Z,99.90
2023-04-14T23:21:11.133Z,99.90
2023-04-14T23:23:37.873Z,99.90
2023-04-14T23:26:05.948Z,99.90
2023-04-14T23:28:32.627Z,99.90
2023-04-14T23:30:59.537Z,99.90
2023-04-14T23:33:26.277Z,99.90
2023-04-14T23:35:53.034Z,99.90
2023-04-14T23:38:19.761Z,99.90
2023-04-14T23:40:46.523Z,99.80
2023-04-14T23:43:14.888Z,99.70
2023-04-14T23:45:41.659Z,99.80
2023-04-14T23:48:08.563Z,99.90
2023-04-14T23:51:01.166Z,99.70
2023-04-14T23:53:22.016Z,99.70
2023-04-14T23:55:49.028Z,99.70
2023-04-14T23:58:26.181Z,99.90
